CheckWX is a tool to help pilots better visualize weather data.  It is not intended as a substitute for an official pre-flight weather briefing.

18:02:16 UTC

KFRH METAR
French Lick Municipal Airport
French Lick, Indiana, USA
Current

27 mins ago

KFRH 201735Z AUTO 03009KT 351V061 10SM CLR 01/M08 A3056 RMK AO1
Observed
Feb-20 @ 17:35 UTC
Wind
  • 030° at 9 KTS
Visibility
10 SM
Flight Rules
VFR
Cloud Levels
  • Clear skies
Temperature
C / 34°F
Dewpoint
-8°C / 18°F
Humidity
51%
Altimeter
30.56" Hg
Pressure
1034.92 hPa
Previous

47 mins ago

KFRH 201715Z AUTO 36004KT 10SM CLR 00/M08 A3056 RMK AO1
Observed
Feb-20 @ 17:15 UTC
Wind
  • 360° at 4 KTS
Visibility
10 SM
Flight Rules
VFR
Cloud Levels
  • Clear skies
Temperature
C / 32°F
Dewpoint
-8°C / 18°F
Humidity
55%
Altimeter
30.56" Hg
Pressure
1034.92 hPa
Previous

1 hour ago

KFRH 201655Z AUTO 06009KT 10SM CLR 00/M08 A3056 RMK AO1
Observed
Feb-20 @ 16:55 UTC
Wind
  • 060° at 9 KTS
Visibility
10 SM
Flight Rules
VFR
Cloud Levels
  • Clear skies
Temperature
C / 32°F
Dewpoint
-8°C / 18°F
Humidity
55%
Altimeter
30.56" Hg
Pressure
1034.92 hPa